createdAt,value
2017-05-25T00:02:17.890Z,96099.37
2017-05-25T00:04:47.546Z,96102.81
2017-05-25T00:07:13.750Z,96101.56
2017-05-25T00:09:39.994Z,96099.08
2017-05-25T00:12:06.278Z,96100.98
2017-05-25T00:14:32.653Z,96101.34
2017-05-25T00:16:58.902Z,96102.49
2017-05-25T00:19:25.177Z,96093.52
2017-05-25T00:21:51.378Z,96093.42
2017-05-25T00:24:17.602Z,96091.37
2017-05-25T00:26:44.554Z,96094.03
2017-05-25T00:29:10.780Z,96089.00
2017-05-25T00:31:39.763Z,96097.00
2017-05-25T00:34:06.014Z,96097.55
2017-05-25T00:36:32.241Z,96097.11
2017-05-25T00:38:58.400Z,96095.11
2017-05-25T00:41:24.585Z,96091.54
2017-05-25T00:43:51.050Z,96095.53
2017-05-25T00:46:18.011Z,96096.72
2017-05-25T00:48:44.234Z,96099.17
2017-05-25T00:51:10.474Z,96093.34
2017-05-25T00:53:36.731Z,96089.88
2017-05-25T00:56:03.651Z,96091.48
2017-05-25T00:58:29.906Z,96095.05
2017-05-25T01:01:00.347Z,96093.07
2017-05-25T01:03:26.525Z,96087.59
2017-05-25T01:05:52.818Z,96084.66
2017-05-25T01:08:19.043Z,96085.59
2017-05-25T01:10:49.037Z,96082.42
2017-05-25T01:13:15.375Z,96078.84
2017-05-25T01:15:45.135Z,96080.77
2017-05-25T01:18:11.319Z,96083.37
2017-05-25T01:20:38.466Z,96081.70
2017-05-25T01:23:04.749Z,96085.56
2017-05-25T01:25:30.954Z,96087.05
2017-05-25T01:27:57.280Z,96082.38
2017-05-25T01:30:23.539Z,96089.66
2017-05-25T01:32:49.898Z,96090.81
2017-05-25T01:35:16.119Z,96084.88
2017-05-25T01:37:42.326Z,96085.73
2017-05-25T01:40:12.286Z,96087.28
2017-05-25T01:42:38.550Z,96084.34
2017-05-25T01:45:05.540Z,96089.01
2017-05-25T01:47:31.766Z,96086.02
2017-05-25T01:49:57.947Z,96089.54
2017-05-25T01:52:24.244Z,96080.41
2017-05-25T01:54:50.484Z,96082.28
2017-05-25T01:57:16.727Z,96078.11
2017-05-25T01:59:42.885Z,96082.33
2017-05-25T02:02:09.084Z,96079.59
2017-05-25T02:04:35.982Z,96076.89
2017-05-25T02:07:02.141Z,96073.42
2017-05-25T02:09:28.374Z,96083.16
2017-05-25T02:11:54.579Z,96081.82
2017-05-25T02:14:20.774Z,96084.17
2017-05-25T02:16:46.987Z,96085.25
2017-05-25T02:19:13.230Z,96080.03
2017-05-25T02:21:40.128Z,96079.63
2017-05-25T02:24:06.278Z,96082.39
2017-05-25T02:26:32.591Z,96082.39
2017-05-25T02:28:59.549Z,96088.39
2017-05-25T02:31:25.725Z,96082.81
2017-05-25T02:33:51.994Z,96081.71
2017-05-25T02:36:18.178Z,96082.61
2017-05-25T02:38:45.213Z,96086.11
2017-05-25T02:41:12.262Z,96085.67
2017-05-25T02:43:38.423Z,96084.26
2017-05-25T02:46:07.602Z,96079.51
2017-05-25T02:48:34.606Z,96092.23
2017-05-25T02:51:04.318Z,96085.31
2017-05-25T02:53:30.533Z,96084.42
2017-05-25T02:55:56.799Z,96082.22
2017-05-25T02:58:23.002Z,96084.95
2017-05-25T03:00:49.232Z,96086.43
2017-05-25T03:03:16.145Z,96089.38
2017-05-25T03:05:42.337Z,96086.14
2017-05-25T03:08:08.554Z,96086.89
2017-05-25T03:10:34.821Z,96086.72
2017-05-25T03:13:01.493Z,96092.71
2017-05-25T03:15:31.135Z,96086.57
2017-05-25T03:17:57.522Z,96089.38
2017-05-25T03:20:23.690Z,96093.12
2017-05-25T03:22:49.951Z,96089.93
2017-05-25T03:25:16.198Z,96088.25
2017-05-25T03:27:46.630Z,96082.05
2017-05-25T03:30:14.109Z,96081.77
2017-05-25T03:32:40.398Z,96077.77
2017-05-25T03:35:06.634Z,96076.99
2017-05-25T03:37:32.871Z,96080.88
2017-05-25T03:40:02.754Z,96081.42
2017-05-25T03:42:28.911Z,96079.54
2017-05-25T03:44:59.831Z,96079.59
2017-05-25T03:47:26.142Z,96080.93
2017-05-25T03:49:56.832Z,96079.25
2017-05-25T03:52:23.098Z,96088.69
2017-05-25T03:54:52.886Z,96080.55
2017-05-25T03:57:19.358Z,96079.91
2017-05-25T03:59:49.942Z,96083.27
2017-05-25T04:02:16.207Z,96088.88
2017-05-25T04:04:45.874Z,96093.91
2017-05-25T04:07:12.102Z,96096.90
2017-05-25T04:09:38.282Z,96092.67
2017-05-25T04:12:08.581Z,96091.51
2017-05-25T04:14:34.753Z,96097.78
2017-05-25T04:17:00.945Z,96092.30
2017-05-25T04:19:27.346Z,96097.73
2017-05-25T04:21:54.673Z,96092.96
2017-05-25T04:24:20.917Z,96089.63
2017-05-25T04:26:52.091Z,96089.13
2017-05-25T04:29:18.280Z,96084.98
2017-05-25T04:31:44.530Z,96090.00
2017-05-25T04:34:10.810Z,96083.61
2017-05-25T04:36:37.016Z,96086.30
2017-05-25T04:39:03.301Z,96088.68
2017-05-25T04:41:29.585Z,96086.34
2017-05-25T04:43:55.807Z,96085.06
2017-05-25T04:46:24.676Z,96086.70
2017-05-25T04:48:50.951Z,96089.03
2017-05-25T04:51:17.100Z,96094.75
2017-05-25T04:53:43.320Z,96092.46
2017-05-25T04:56:09.554Z,96086.80
2017-05-25T04:58:35.766Z,96097.13
2017-05-25T05:01:02.012Z,96101.53
2017-05-25T05:03:28.247Z,96100.02
2017-05-25T05:05:54.457Z,96099.28
2017-05-25T05:08:20.681Z,96098.41
2017-05-25T05:10:47.677Z,96098.73
2017-05-25T05:13:13.893Z,96093.08
2017-05-25T05:15:40.134Z,96092.52
2017-05-25T05:18:06.382Z,96090.15
2017-05-25T05:20:36.072Z,96090.34
2017-05-25T05:23:02.299Z,96091.20
2017-05-25T05:25:28.562Z,96098.56
2017-05-25T05:27:54.807Z,96095.21
2017-05-25T05:30:24.498Z,96098.95
2017-05-25T05:32:51.531Z,96095.66
2017-05-25T05:35:17.765Z,96101.65
2017-05-25T05:37:43.951Z,96097.16
2017-05-25T05:40:14.077Z,96100.11
2017-05-25T05:42:40.286Z,96093.93
2017-05-25T05:45:10.949Z,96095.48
2017-05-25T05:47:37.215Z,96091.95
2017-05-25T05:50:07.323Z,96093.89
2017-05-25T05:52:33.606Z,96090.39
2017-05-25T05:55:03.416Z,96093.20
2017-05-25T05:57:29.818Z,96093.80
2017-05-25T05:59:56.359Z,96094.02
2017-05-25T06:02:22.849Z,96090.47
2017-05-25T06:04:52.111Z,96093.66
2017-05-25T06:07:18.351Z,96095.23
2017-05-25T06:09:44.830Z,96098.00
2017-05-25T06:12:11.173Z,96095.68
2017-05-25T06:14:37.355Z,96093.83
2017-05-25T06:17:03.762Z,96092.63
2017-05-25T06:19:31.181Z,96093.48
2017-05-25T06:21:57.514Z,96094.31
2017-05-25T06:24:23.815Z,96093.27
2017-05-25T06:26:50.071Z,96095.71
2017-05-25T06:29:19.242Z,96094.64
2017-05-25T06:31:45.797Z,96091.53
2017-05-25T06:34:12.074Z,96095.23
2017-05-25T06:36:38.398Z,96093.56
2017-05-25T06:39:04.695Z,96097.48
2017-05-25T06:41:30.874Z,96101.11
2017-05-25T06:43:57.828Z,96096.97
2017-05-25T06:46:26.005Z,96097.65
2017-05-25T06:48:55.977Z,96095.84
2017-05-25T06:51:22.271Z,96093.91
2017-05-25T06:53:49.594Z,96106.35
2017-05-25T06:56:15.850Z,96108.20
2017-05-25T06:58:42.104Z,96108.20
2017-05-25T07:01:08.305Z,96112.73
2017-05-25T07:03:34.543Z,96117.98
2017-05-25T07:06:01.543Z,96115.52
2017-05-25T07:08:27.746Z,96109.91
2017-05-25T07:10:56.450Z,96112.33
2017-05-25T07:13:22.710Z,96118.33
2017-05-25T07:15:48.923Z,96115.50
2017-05-25T07:18:15.838Z,96118.86
2017-05-25T07:20:42.142Z,96116.63
2017-05-25T07:23:08.323Z,96114.95
2017-05-25T07:25:34.593Z,96122.53
2017-05-25T07:28:01.638Z,96119.11
2017-05-25T07:30:27.848Z,96114.83
2017-05-25T07:32:54.940Z,96106.35
2017-05-25T07:35:21.238Z,96109.23
2017-05-25T07:37:55.817Z,96107.97
2017-05-25T07:40:22.161Z,96104.02
2017-05-25T07:42:48.438Z,96106.09
2017-05-25T07:45:17.796Z,96106.20
2017-05-25T07:47:43.987Z,96103.71
2017-05-25T07:50:14.469Z,96101.03
2017-05-25T07:52:40.740Z,96099.20
2017-05-25T07:55:07.006Z,96095.06
2017-05-25T07:57:34.380Z,96108.14
2017-05-25T08:00:04.330Z,96101.81
2017-05-25T08:02:31.356Z,96104.27
2017-05-25T08:05:01.140Z,96106.53
2017-05-25T08:07:28.096Z,96108.18
2017-05-25T08:17:21.895Z,96111.19
2017-05-25T08:19:48.344Z,96113.20
2017-05-25T08:22:15.412Z,96112.68
2017-05-25T08:24:41.836Z,96109.56
2017-05-25T08:27:08.289Z,96104.16
2017-05-25T08:29:34.667Z,96107.50
2017-05-25T08:32:01.123Z,96103.52
2017-05-25T08:34:27.700Z,96103.12
2017-05-25T08:36:54.991Z,96106.02
2017-05-25T08:39:23.206Z,96103.64
2017-05-25T08:41:50.341Z,96106.20
2017-05-25T08:44:16.748Z,96111.69
2017-05-25T08:46:44.065Z,96108.81
2017-05-25T08:49:10.497Z,96118.61
2017-05-25T08:51:38.683Z,96112.05
2017-05-25T08:54:05.078Z,96119.39
2017-05-25T08:56:31.624Z,96109.91
2017-05-25T08:58:58.043Z,96114.21
2017-05-25T09:01:24.382Z,96113.60
2017-05-25T09:03:51.004Z,96117.32
2017-05-25T09:06:18.115Z,96107.55
2017-05-25T09:18:00.682Z,96099.84
2017-05-25T09:20:27.083Z,96111.63
2017-05-25T09:22:53.458Z,96116.14
2017-05-25T09:25:19.831Z,96116.84
2017-05-25T09:27:47.247Z,96112.53
2017-05-25T09:30:13.643Z,96108.70
2017-05-25T09:32:40.837Z,96112.34
2017-05-25T09:35:07.963Z,96112.39
2017-05-25T09:37:34.360Z,96111.47
2017-05-25T09:40:01.557Z,96107.65
2017-05-25T09:42:28.924Z,96109.80
2017-05-25T09:44:55.356Z,96108.84
2017-05-25T09:47:23.719Z,96109.80
2017-05-25T09:49:50.170Z,96107.67
2017-05-25T09:52:16.570Z,96106.25
2017-05-25T09:54:43.072Z,96101.11
2017-05-25T09:57:09.510Z,96095.28
2017-05-25T09:59:35.939Z,96095.23
2017-05-25T10:02:02.348Z,96082.09
2017-05-25T10:04:31.365Z,96085.92
2017-05-25T10:06:57.809Z,96082.28
2017-05-25T10:09:24.220Z,96085.46
2017-05-25T10:11:50.552Z,96080.47
2017-05-25T10:14:18.714Z,96086.41
2017-05-25T10:17:42.616Z,96074.99
2017-05-25T10:20:14.365Z,96072.38
2017-05-25T10:22:40.828Z,96073.72
2017-05-25T10:25:07.463Z,96077.52
2017-05-25T10:27:33.893Z,96070.38
2017-05-25T10:30:00.445Z,96069.09
2017-05-25T10:32:26.759Z,96066.95
2017-05-25T10:34:54.434Z,96067.41
2017-05-25T10:37:21.426Z,96064.89
2017-05-25T10:39:48.168Z,96066.22
2017-05-25T10:42:14.596Z,96062.03
2017-05-25T10:44:44.163Z,96068.55
2017-05-25T10:47:10.609Z,96069.11
2017-05-25T10:49:37.070Z,96067.27
2017-05-25T10:52:03.545Z,96063.97
2017-05-25T10:54:34.072Z,96070.09
2017-05-25T10:57:01.543Z,96059.05
2017-05-25T10:59:28.004Z,96063.06
2017-05-25T11:01:54.540Z,96064.13
2017-05-25T11:04:21.002Z,96070.45
2017-05-25T11:06:47.528Z,96076.53
2017-05-25T11:09:14.700Z,96069.81
2017-05-25T11:11:41.321Z,96063.18
2017-05-25T11:14:07.702Z,96063.60
2017-05-25T11:16:34.847Z,96058.44
2017-05-25T11:19:01.345Z,96051.94
2017-05-25T11:21:27.720Z,96053.50
2017-05-25T11:23:55.189Z,96049.17
2017-05-25T11:26:21.611Z,96049.67
2017-05-25T11:36:39.163Z,96046.31
2017-05-25T11:39:05.523Z,96041.82
2017-05-25T11:41:32.726Z,96047.51
2017-05-25T11:43:59.151Z,96049.60
2017-05-25T11:46:26.267Z,96044.05
2017-05-25T11:48:56.681Z,96034.05
2017-05-25T11:51:27.562Z,96033.29
2017-05-25T11:53:54.035Z,96024.95
2017-05-25T11:56:20.595Z,96025.98
2017-05-25T11:58:46.961Z,96021.16
2017-05-25T12:01:13.539Z,96019.16
2017-05-25T12:03:40.100Z,96020.38
2017-05-25T12:06:06.499Z,96019.78
2017-05-25T12:08:33.693Z,96013.25
2017-05-25T12:11:00.110Z,96008.71
2017-05-25T12:13:27.268Z,96010.23
2017-05-25T12:15:53.683Z,96004.45
2017-05-25T12:18:20.118Z,95997.09
2017-05-25T12:20:46.623Z,95998.71
2017-05-25T12:23:13.021Z,96000.55
2017-05-25T12:25:39.480Z,95995.58
2017-05-25T12:28:05.899Z,95995.48
2017-05-25T12:30:33.013Z,95996.02
2017-05-25T12:32:59.384Z,95995.14
2017-05-25T12:35:30.719Z,95999.55
2017-05-25T12:37:57.197Z,96001.52
2017-05-25T12:40:38.556Z,95994.89
2017-05-25T12:43:04.957Z,95992.81
2017-05-25T12:45:31.359Z,95991.22
2017-05-25T12:47:57.918Z,95977.26
2017-05-25T12:50:27.236Z,95976.30
2017-05-25T12:52:53.996Z,95978.43
2017-05-25T12:55:20.317Z,95970.96
2017-05-25T12:57:46.686Z,95970.14
2017-05-25T13:00:13.284Z,95966.05
2017-05-25T13:02:39.664Z,95968.15
2017-05-25T13:05:06.090Z,95972.84
2017-05-25T13:07:32.476Z,95973.30
2017-05-25T13:09:58.928Z,95972.50
2017-05-25T13:12:25.322Z,95970.55
2017-05-25T13:14:51.944Z,95969.89
2017-05-25T13:17:18.318Z,95970.14
2017-05-25T13:19:44.653Z,95967.13
2017-05-25T13:22:11.103Z,95964.11
2017-05-25T13:24:37.568Z,95961.23
2017-05-25T13:27:04.969Z,95962.59
2017-05-25T13:29:31.460Z,95968.59
2017-05-25T13:31:57.980Z,95972.08
2017-05-25T13:34:25.227Z,95973.84
2017-05-25T13:36:51.774Z,95971.00
2017-05-25T13:39:18.253Z,95963.89
2017-05-25T13:41:45.370Z,95956.91
2017-05-25T13:44:11.781Z,95959.71
2017-05-25T13:46:38.285Z,95963.88
2017-05-25T13:49:04.699Z,95966.73
2017-05-25T13:51:31.096Z,95962.70
2017-05-25T13:53:58.678Z,95954.02
2017-05-25T13:56:25.981Z,95952.05
2017-05-25T13:58:52.363Z,95946.77
2017-05-25T14:01:18.872Z,95949.17
2017-05-25T14:03:45.263Z,95947.00
2017-05-25T14:06:11.676Z,95953.19
2017-05-25T14:08:38.035Z,95955.63
2017-05-25T14:11:04.618Z,95959.80
2017-05-25T14:13:31.003Z,95958.31
2017-05-25T14:15:57.416Z,95954.83
2017-05-25T14:18:24.035Z,95952.11
2017-05-25T14:20:50.394Z,95951.95
2017-05-25T14:23:16.744Z,95960.22
2017-05-25T14:25:43.883Z,95952.19
2017-05-25T14:28:10.461Z,95955.86
2017-05-25T14:30:36.860Z,95961.41
2017-05-25T14:33:03.288Z,95961.25
2017-05-25T14:35:34.309Z,95954.98
2017-05-25T14:38:00.713Z,95948.81
2017-05-25T14:40:27.160Z,95947.84
2017-05-25T14:42:53.592Z,95947.09
2017-05-25T14:45:20.254Z,95938.05
2017-05-25T14:47:47.462Z,95934.06
2017-05-25T14:50:13.825Z,95939.84
2017-05-25T14:52:40.331Z,95944.25
2017-05-25T14:55:06.697Z,95943.23
2017-05-25T14:57:33.059Z,95944.28
2017-05-25T15:00:00.355Z,95938.68
2017-05-25T15:02:26.743Z,95948.66
2017-05-25T15:04:53.190Z,95944.00
2017-05-25T15:07:20.579Z,95943.91
2017-05-25T15:09:46.975Z,95946.37
2017-05-25T15:12:13.410Z,95944.78
2017-05-25T15:14:40.736Z,95941.89
2017-05-25T15:17:07.083Z,95947.13
2017-05-25T15:19:33.448Z,95946.08
2017-05-25T15:21:59.887Z,95942.16
2017-05-25T15:24:26.344Z,95944.61
2017-05-25T15:26:53.486Z,95948.25
2017-05-25T15:29:19.926Z,95947.22
2017-05-25T15:31:46.399Z,95957.65
2017-05-25T15:34:13.539Z,95955.09
2017-05-25T15:36:40.192Z,95944.83
2017-05-25T15:39:06.597Z,95947.73
2017-05-25T15:41:33.023Z,95942.66
2017-05-25T15:43:59.344Z,95942.41
2017-05-25T15:46:26.430Z,95937.80
2017-05-25T15:48:52.917Z,95931.87
2017-05-25T15:51:19.384Z,95933.79
2017-05-25T15:53:45.739Z,95932.94
2017-05-25T15:56:12.177Z,95931.66
2017-05-25T15:58:38.570Z,95934.98
2017-05-25T16:01:04.917Z,95939.79
2017-05-25T16:03:31.284Z,95925.08
2017-05-25T16:05:58.460Z,95934.42
2017-05-25T16:08:24.910Z,95934.47
2017-05-25T16:10:51.319Z,95928.66
2017-05-25T16:13:18.423Z,95931.41
2017-05-25T16:15:45.538Z,95927.87
2017-05-25T16:18:12.715Z,95927.22
2017-05-25T16:20:40.324Z,95931.30
2017-05-25T16:23:06.680Z,95930.45
2017-05-25T16:25:33.025Z,95932.76
2017-05-25T16:27:59.407Z,95928.86
2017-05-25T16:30:25.803Z,95933.77
2017-05-25T16:32:53.225Z,95936.31
2017-05-25T16:35:19.724Z,95936.31
2017-05-25T16:37:46.152Z,95936.89
2017-05-25T16:40:12.588Z,95936.31
2017-05-25T16:42:39.134Z,95936.50
2017-05-25T16:45:05.555Z,95932.66
2017-05-25T16:47:31.909Z,95932.31
2017-05-25T16:49:58.503Z,95934.80
2017-05-25T16:52:24.904Z,95932.45
2017-05-25T16:54:52.041Z,95935.55
2017-05-25T16:57:18.503Z,95934.73
2017-05-25T16:59:44.904Z,95937.06
2017-05-25T17:02:18.267Z,95938.23
2017-05-25T17:04:44.660Z,95936.51
2017-05-25T17:07:11.088Z,95934.33
2017-05-25T17:09:38.279Z,95938.19
2017-05-25T17:12:04.703Z,95932.47
2017-05-25T17:14:31.143Z,95930.95
2017-05-25T17:17:12.519Z,95932.83
2017-05-25T17:19:38.879Z,95934.09
2017-05-25T17:22:06.090Z,95928.50
2017-05-25T17:24:32.580Z,95928.92
2017-05-25T17:26:58.976Z,95930.77
2017-05-25T17:29:25.292Z,95927.05
2017-05-25T17:31:51.660Z,95932.26
2017-05-25T17:34:18.844Z,95929.16
2017-05-25T17:36:45.279Z,95929.55
2017-05-25T17:39:11.691Z,95924.24
2017-05-25T17:41:38.114Z,95929.99
2017-05-25T17:44:04.653Z,95926.30
2017-05-25T17:46:31.020Z,95926.20
2017-05-25T17:48:58.134Z,95927.23
2017-05-25T17:51:24.503Z,95927.80
2017-05-25T17:53:51.008Z,95931.33
2017-05-25T17:56:18.137Z,95933.73
2017-05-25T17:58:44.575Z,95934.23
2017-05-25T18:01:10.989Z,95938.27
2017-05-25T18:03:37.423Z,95938.37
2017-05-25T18:06:03.888Z,95940.86
2017-05-25T18:08:31.070Z,95943.69
2017-05-25T18:10:57.431Z,95942.32
2017-05-25T18:13:23.796Z,95938.42
2017-05-25T18:15:50.906Z,95933.59
2017-05-25T18:18:17.265Z,95935.11
2017-05-25T18:20:44.727Z,95941.88
2017-05-25T18:23:11.441Z,95939.88
2017-05-25T18:25:37.821Z,95944.44
2017-05-25T18:28:04.319Z,95945.56
2017-05-25T18:30:30.690Z,95948.05
2017-05-25T18:32:57.170Z,95946.05
2017-05-25T18:35:23.556Z,95959.53
2017-05-25T18:37:49.955Z,95954.47
2017-05-25T18:40:16.338Z,95951.33
2017-05-25T18:42:42.737Z,95956.20
2017-05-25T18:45:09.141Z,95961.20
2017-05-25T18:47:35.554Z,95962.25
2017-05-25T18:50:02.033Z,95960.30
2017-05-25T18:52:28.424Z,95966.61
2017-05-25T18:54:54.781Z,95963.34
2017-05-25T18:57:21.244Z,95967.91
2017-05-25T18:59:47.662Z,95971.92
2017-05-25T19:02:14.789Z,95975.33
2017-05-25T19:04:41.173Z,95968.98
2017-05-25T19:07:13.953Z,95976.16
2017-05-25T19:09:41.732Z,95974.50
2017-05-25T19:12:08.070Z,95977.72
2017-05-25T19:14:34.495Z,95985.96
2017-05-25T19:17:02.364Z,95986.73
2017-05-25T19:19:28.797Z,95987.28
2017-05-25T19:21:55.916Z,95986.14
2017-05-25T19:24:22.287Z,95988.00
2017-05-25T19:26:48.758Z,95986.10
2017-05-25T19:29:15.139Z,95990.19
2017-05-25T19:31:41.512Z,95992.42
2017-05-25T19:34:07.917Z,95990.13
2017-05-25T19:36:34.417Z,95992.55
2017-05-25T19:39:00.829Z,95994.52
2017-05-25T19:41:27.246Z,96000.61
2017-05-25T19:43:53.732Z,96002.81
2017-05-25T19:46:20.159Z,96009.28
2017-05-25T19:48:46.576Z,96003.00
2017-05-25T19:51:12.936Z,96018.75
2017-05-25T19:53:39.376Z,96025.34
2017-05-25T19:56:05.803Z,96021.93
2017-05-25T19:58:32.262Z,96025.77
2017-05-25T20:00:58.683Z,96027.55
2017-05-25T20:03:25.085Z,96029.83
2017-05-25T20:05:51.481Z,96032.12
2017-05-25T20:08:17.847Z,96031.64
2017-05-25T20:10:50.868Z,96034.75
2017-05-25T20:13:17.315Z,96033.56
2017-05-25T20:15:43.724Z,96037.17
2017-05-25T20:18:10.881Z,96039.00
2017-05-25T20:20:38.104Z,96038.24
2017-05-25T20:23:04.463Z,96040.88
2017-05-25T20:25:30.827Z,96041.59
2017-05-25T20:27:57.288Z,96044.31
2017-05-25T20:30:23.696Z,96041.97
2017-05-25T20:32:51.048Z,96045.48
2017-05-25T20:35:17.471Z,96044.88
2017-05-25T20:37:43.853Z,96051.00
2017-05-25T20:40:11.224Z,96049.78
2017-05-25T20:42:37.671Z,96053.44
2017-05-25T20:45:04.045Z,96045.77
2017-05-25T20:47:30.419Z,96043.67
2017-05-25T20:49:56.856Z,96039.48
2017-05-25T20:52:29.412Z,96040.73
2017-05-25T20:54:57.103Z,96041.39
2017-05-25T20:57:23.611Z,96039.83
2017-05-25T20:59:50.096Z,96042.36
2017-05-25T21:02:16.578Z,96038.98
2017-05-25T21:04:42.969Z,96039.93
2017-05-25T21:07:11.142Z,96040.11
2017-05-25T21:09:37.586Z,96040.26
2017-05-25T21:12:04.020Z,96036.72
2017-05-25T21:14:30.484Z,96038.64
2017-05-25T21:16:56.932Z,96036.77
2017-05-25T21:19:23.451Z,96043.53
2017-05-25T21:21:49.900Z,96036.47
2017-05-25T21:24:16.360Z,96038.34
2017-05-25T21:26:44.520Z,96034.88
2017-05-25T21:29:12.087Z,96033.03
2017-05-25T21:33:19.605Z,96035.56
2017-05-25T21:35:45.807Z,96034.03
2017-05-25T21:38:12.045Z,96034.03
2017-05-25T21:40:38.479Z,96041.08
2017-05-25T21:43:04.701Z,96039.27
2017-05-25T21:45:30.943Z,96037.87
2017-05-25T21:47:57.183Z,96036.86
2017-05-25T21:50:27.315Z,96036.59
2017-05-25T21:52:53.520Z,96037.30
2017-05-25T21:55:21.870Z,96030.65
2017-05-25T21:57:48.150Z,96030.37
2017-05-25T22:00:14.398Z,96028.55
2017-05-25T22:02:40.818Z,96026.12
2017-05-25T22:05:07.081Z,96026.66
2017-05-25T22:07:34.046Z,96026.64
2017-05-25T22:10:02.277Z,96028.03
2017-05-25T22:12:28.506Z,96025.34
2017-05-25T22:15:01.911Z,96024.97
2017-05-25T22:17:28.130Z,96025.14
2017-05-25T22:19:55.246Z,96018.75
2017-05-25T22:22:22.466Z,96022.05
2017-05-25T22:24:54.480Z,96029.86
2017-05-25T22:27:28.726Z,96024.02
2017-05-25T22:29:59.052Z,96027.28
2017-05-25T22:32:26.248Z,96023.66
2017-05-25T22:34:56.197Z,96025.45
2017-05-25T22:37:26.798Z,96018.67
2017-05-25T22:39:57.683Z,96022.55
2017-05-25T22:42:23.996Z,96016.39
2017-05-25T22:44:54.169Z,96023.18
2017-05-25T22:47:20.422Z,96018.29
2017-05-25T22:49:50.955Z,96015.80
2017-05-25T22:52:18.262Z,96015.91
2017-05-25T22:54:49.001Z,96012.89
2017-05-25T22:57:16.187Z,96014.05
2017-05-25T22:59:42.642Z,96018.27
2017-05-25T23:02:08.881Z,96019.91
2017-05-25T23:04:39.013Z,96020.16
2017-05-25T23:07:05.443Z,96016.16
2017-05-25T23:09:33.614Z,96009.87
2017-05-25T23:11:59.873Z,96010.97
2017-05-25T23:14:27.127Z,96011.73
2017-05-25T23:16:58.179Z,96009.13
2017-05-25T23:19:26.506Z,96016.24
2017-05-25T23:21:52.674Z,96010.62
2017-05-25T23:24:22.079Z,96007.99
2017-05-25T23:26:49.371Z,96005.29
2017-05-25T23:29:17.228Z,96000.13
2017-05-25T23:31:43.479Z,95996.64
2017-05-25T23:34:09.743Z,96008.58
2017-05-25T23:36:36.950Z,96005.66
2017-05-25T23:39:03.234Z,96002.17
2017-05-25T23:41:34.344Z,96002.77
2017-05-25T23:44:00.525Z,96001.80
2017-05-25T23:46:27.474Z,96002.41
2017-05-25T23:48:55.774Z,95996.97
2017-05-25T23:51:23.960Z,95997.14
2017-05-25T23:53:53.611Z,95989.48
2017-05-25T23:56:19.870Z,95993.63
2017-05-25T23:58:46.135Z,95993.16
